createdAt,value
2023-01-08T00:01:17.977Z,62.15
2023-01-08T00:03:45.769Z,63.75
2023-01-08T00:06:16.921Z,62.67
2023-01-08T00:08:45.237Z,63.47
2023-01-08T00:11:13.652Z,62.50
2023-01-08T00:13:41.185Z,64.10
2023-01-08T00:16:11.657Z,65.80
2023-01-08T00:18:39.277Z,63.40
2023-01-08T00:21:07.362Z,66.53
2023-01-08T00:23:35.613Z,67.35
2023-01-08T00:26:08.640Z,65.95
2023-01-08T00:28:38.106Z,62.67
2023-01-08T00:31:11.144Z,63.45
2023-01-08T00:33:40.231Z,66.20
2023-01-08T00:36:10.369Z,63.58
2023-01-08T00:38:38.193Z,65.25
2023-01-08T00:41:06.168Z,62.58
2023-01-08T00:43:33.889Z,61.05
2023-01-08T00:46:01.546Z,64.30
2023-01-08T00:48:29.132Z,60.40
2023-01-08T00:50:57.058Z,60.55
2023-01-08T00:53:24.647Z,63.60
2023-01-08T00:56:00.188Z,63.55
2023-01-08T00:58:27.775Z,61.75
2023-01-08T01:00:55.410Z,60.65
2023-01-08T01:03:23.162Z,59.88
2023-01-08T01:05:50.855Z,61.30
2023-01-08T01:08:18.378Z,55.10
2023-01-08T01:10:45.927Z,60.75
2023-01-08T01:13:13.399Z,61.70
2023-01-08T01:15:40.851Z,68.32
2023-01-08T01:18:08.628Z,63.60
2023-01-08T01:20:36.102Z,61.88
2023-01-08T01:23:04.312Z,66.32
2023-01-08T01:25:37.095Z,70.72
2023-01-08T01:28:04.786Z,70.03
2023-01-08T01:30:32.447Z,168.02
2023-01-08T01:33:00.021Z,98.25
2023-01-08T01:35:27.588Z,70.90
2023-01-08T01:37:55.216Z,64.82
2023-01-08T01:40:22.799Z,153.73
2023-01-08T01:42:50.307Z,80.82
2023-01-08T01:45:27.664Z,67.75
2023-01-08T01:48:15.736Z,66.50
2023-01-08T01:50:48.739Z,65.25
2023-01-08T01:53:28.655Z,64.50
2023-01-08T01:55:57.884Z,61.22
2023-01-08T01:58:30.469Z,65.30
2023-01-08T02:01:02.623Z,78.55
2023-01-08T02:03:33.335Z,93.72
2023-01-08T02:06:04.976Z,74.13
2023-01-08T02:09:01.652Z,109.20
2023-01-08T02:11:31.813Z,68.85
2023-01-08T02:14:17.033Z,62.85
2023-01-08T02:16:57.275Z,58.60
2023-01-08T02:19:38.551Z,60.45
2023-01-08T02:22:26.041Z,61.30
2023-01-08T02:24:59.172Z,64.40
2023-01-08T02:27:30.235Z,61.38
2023-01-08T02:29:58.507Z,59.95
2023-01-08T02:32:34.206Z,56.05
2023-01-08T02:35:01.680Z,58.60
2023-01-08T02:37:29.197Z,62.97
2023-01-08T02:40:17.782Z,60.08
2023-01-08T02:42:48.065Z,60.08
2023-01-08T02:45:24.423Z,56.20
2023-01-08T02:48:12.779Z,57.28
2023-01-08T02:50:55.454Z,60.70
2023-01-08T02:53:33.724Z,55.70
2023-01-08T02:56:10.978Z,56.95
2023-01-08T02:58:40.316Z,60.78
2023-01-08T03:01:11.851Z,57.90
2023-01-08T03:03:42.371Z,60.13
2023-01-08T03:06:15.587Z,57.38
2023-01-08T03:08:46.553Z,57.13
2023-01-08T03:11:17.324Z,53.97
2023-01-08T03:14:11.229Z,54.78
2023-01-08T03:17:05.549Z,57.17
2023-01-08T03:19:40.287Z,54.20
2023-01-08T03:22:11.826Z,58.25
2023-01-08T03:24:43.010Z,75.38
2023-01-08T03:27:15.470Z,84.15
2023-01-08T03:29:44.632Z,56.55
2023-01-08T03:32:15.257Z,52.28
2023-01-08T03:34:44.924Z,53.50
2023-01-08T03:37:15.038Z,52.63
2023-01-08T03:40:09.018Z,58.45
2023-01-08T03:42:36.485Z,53.70
2023-01-08T03:45:04.394Z,53.53
2023-01-08T03:47:34.653Z,54.30
2023-01-08T03:50:04.469Z,55.00
2023-01-08T03:52:33.046Z,54.78
2023-01-08T03:55:00.606Z,56.95
2023-01-08T03:57:28.130Z,57.70
2023-01-08T03:59:55.645Z,57.80
2023-01-08T04:02:23.187Z,57.75
2023-01-08T04:04:50.835Z,55.03
2023-01-08T04:07:18.392Z,58.38
2023-01-08T04:09:45.961Z,57.83
2023-01-08T04:12:13.557Z,54.47
2023-01-08T04:14:41.012Z,52.08
2023-01-08T04:17:11.930Z,54.40
2023-01-08T04:19:39.868Z,53.35
2023-01-08T04:22:11.024Z,55.17
2023-01-08T04:24:38.469Z,95.65
2023-01-08T04:27:06.021Z,64.75
2023-01-08T04:29:33.545Z,57.70
2023-01-08T04:32:01.095Z,51.75
2023-01-08T04:34:28.616Z,51.10
2023-01-08T04:36:56.383Z,51.88
2023-01-08T04:39:23.882Z,51.72
2023-01-08T04:41:51.324Z,49.85
2023-01-08T04:44:18.865Z,55.42
2023-01-08T04:46:46.326Z,56.03
2023-01-08T04:49:14.345Z,77.10
2023-01-08T04:51:41.892Z,82.50
2023-01-08T04:54:09.337Z,75.05
2023-01-08T04:56:37.184Z,59.05
2023-01-08T04:59:04.768Z,59.40
2023-01-08T05:01:32.421Z,53.70
2023-01-08T05:04:04.982Z,53.10
2023-01-08T05:06:33.016Z,82.38
2023-01-08T05:09:00.630Z,85.78
2023-01-08T05:11:28.366Z,62.03
2023-01-08T05:13:56.621Z,52.95
2023-01-08T05:16:24.148Z,52.20
2023-01-08T05:18:51.675Z,48.08
2023-01-08T05:21:19.355Z,48.63
2023-01-08T05:23:48.025Z,51.55
2023-01-08T05:26:16.684Z,48.00
2023-01-08T05:28:44.421Z,50.67
2023-01-08T05:31:12.366Z,45.58
2023-01-08T05:33:40.468Z,47.55
2023-01-08T05:36:09.727Z,47.72
2023-01-08T05:38:37.602Z,64.88
2023-01-08T05:41:06.559Z,52.15
2023-01-08T05:43:34.560Z,48.95
2023-01-08T05:46:03.306Z,53.70
2023-01-08T05:48:32.837Z,56.50
2023-01-08T05:51:00.800Z,49.42
2023-01-08T05:53:28.351Z,50.42
2023-01-08T05:56:03.867Z,47.45
2023-01-08T05:58:31.783Z,48.15
2023-01-08T06:01:06.247Z,51.60
2023-01-08T06:03:33.886Z,48.42
2023-01-08T06:06:02.790Z,46.28
2023-01-08T06:08:31.014Z,48.60
2023-01-08T06:11:02.885Z,49.65
2023-01-08T06:13:30.364Z,50.13
2023-01-08T06:16:01.850Z,50.47
2023-01-08T06:18:30.043Z,48.53
2023-01-08T06:20:57.525Z,50.47
2023-01-08T06:23:25.466Z,48.75
2023-01-08T06:25:54.582Z,49.10
2023-01-08T06:28:22.600Z,48.72
2023-01-08T06:30:50.810Z,47.83
2023-01-08T06:33:21.398Z,72.93
2023-01-08T06:35:49.366Z,177.32
2023-01-08T06:38:19.358Z,98.95
2023-01-08T06:40:47.824Z,65.57
2023-01-08T06:43:15.382Z,69.07
2023-01-08T06:45:42.927Z,46.92
2023-01-08T06:48:10.451Z,47.03
2023-01-08T06:50:38.082Z,86.63
2023-01-08T06:53:05.574Z,56.13
2023-01-08T06:55:33.141Z,51.03
2023-01-08T06:58:00.960Z,65.38
2023-01-08T07:00:29.538Z,168.80
2023-01-08T07:02:57.915Z,78.28
2023-01-08T07:05:25.803Z,66.47
2023-01-08T07:07:53.698Z,52.25
2023-01-08T07:10:21.567Z,44.92
2023-01-08T07:12:49.140Z,44.65
2023-01-08T07:15:16.847Z,55.80
2023-01-08T07:17:44.404Z,59.30
2023-01-08T07:20:11.910Z,44.15
2023-01-08T07:22:39.374Z,42.45
2023-01-08T07:25:07.663Z,59.00
2023-01-08T07:27:35.267Z,56.55
2023-01-08T07:30:02.945Z,90.38
2023-01-08T07:32:30.698Z,84.80
2023-01-08T07:34:59.239Z,69.07
2023-01-08T07:37:26.919Z,102.30
2023-01-08T07:39:54.667Z,114.93
2023-01-08T07:42:22.127Z,53.00
2023-01-08T07:44:49.675Z,104.75
2023-01-08T07:47:17.109Z,49.10
2023-01-08T07:49:44.532Z,105.05
2023-01-08T07:52:12.011Z,67.18
2023-01-08T07:54:39.525Z,52.97
2023-01-08T07:57:07.049Z,76.22
2023-01-08T07:59:34.646Z,74.95
2023-01-08T08:02:03.117Z,44.90
2023-01-08T08:04:31.153Z,44.78
2023-01-08T08:06:58.683Z,67.65
2023-01-08T08:09:26.132Z,40.35
2023-01-08T08:11:53.734Z,42.28
2023-01-08T08:14:21.364Z,49.75
2023-01-08T08:16:48.884Z,36.75
2023-01-08T08:19:16.439Z,41.05
2023-01-08T08:21:44.012Z,45.40
2023-01-08T08:24:11.563Z,38.05
2023-01-08T08:26:39.001Z,38.83
2023-01-08T08:29:06.450Z,44.22
2023-01-08T08:31:34.312Z,48.95
2023-01-08T08:34:01.886Z,91.10
2023-01-08T08:36:30.315Z,44.58
2023-01-08T08:38:57.901Z,119.95
2023-01-08T08:41:26.527Z,87.22
2023-01-08T08:43:54.575Z,80.63
2023-01-08T08:46:22.166Z,32.40
2023-01-08T08:48:49.665Z,35.88
2023-01-08T08:51:17.130Z,33.47
2023-01-08T08:53:44.703Z,36.33
2023-01-08T08:56:13.676Z,93.65
2023-01-08T08:58:45.277Z,40.72
2023-01-08T09:01:12.924Z,31.20
2023-01-08T09:03:40.501Z,39.78
2023-01-08T09:06:14.087Z,34.00
2023-01-08T09:08:41.621Z,44.13
2023-01-08T09:11:10.100Z,42.83
2023-01-08T09:13:37.803Z,173.32
2023-01-08T09:16:05.656Z,50.72
2023-01-08T09:18:33.226Z,41.22
2023-01-08T09:21:05.783Z,32.78
2023-01-08T09:23:34.557Z,60.08
2023-01-08T09:26:05.920Z,39.20
2023-01-08T09:28:33.716Z,34.22
2023-01-08T09:31:02.819Z,33.13
2023-01-08T09:33:31.661Z,31.83
2023-01-08T09:35:59.193Z,38.80
2023-01-08T09:38:29.618Z,36.42
2023-01-08T09:41:02.535Z,29.38
2023-01-08T09:43:34.677Z,27.98
2023-01-08T09:46:05.851Z,24.60
2023-01-08T09:48:36.922Z,28.52
2023-01-08T09:51:05.312Z,23.75
2023-01-08T09:53:33.522Z,23.58
2023-01-08T09:56:11.206Z,27.08
2023-01-08T09:58:43.618Z,23.40
2023-01-08T10:01:16.240Z,28.23
2023-01-08T10:25:54.876Z,23.75
2023-01-08T10:28:30.701Z,37.47
2023-01-08T10:31:08.339Z,29.05
2023-01-08T10:33:42.583Z,40.67
2023-01-08T10:36:14.585Z,75.20
2023-01-08T10:38:48.373Z,43.83
2023-01-08T10:41:17.133Z,23.85
2023-01-08T10:43:58.707Z,23.40
2023-01-08T10:46:28.445Z,36.60
2023-01-08T10:49:39.106Z,34.25
2023-01-08T10:52:33.216Z,23.48
2023-01-08T10:55:23.365Z,22.90
2023-01-08T10:58:02.609Z,21.70
2023-01-08T11:00:33.407Z,20.83
2023-01-08T11:03:26.730Z,19.77
2023-01-08T11:05:54.930Z,22.83
2023-01-08T11:08:24.890Z,20.17
2023-01-08T11:10:56.098Z,18.15
2023-01-08T11:13:24.155Z,20.25
2023-01-08T11:16:07.825Z,20.23
2023-01-08T11:18:46.752Z,23.90
2023-01-08T11:21:28.115Z,18.85
2023-01-08T11:24:15.743Z,21.60
2023-01-08T11:26:48.654Z,18.08
2023-01-08T11:29:48.530Z,17.50
2023-01-08T11:32:16.030Z,66.82
2023-01-08T11:35:04.554Z,21.05
2023-01-08T11:37:35.966Z,19.67
2023-01-08T11:40:03.790Z,20.20
2023-01-08T11:43:02.194Z,19.83
2023-01-08T11:45:54.833Z,19.88
2023-01-08T11:48:27.417Z,22.70
2023-01-08T11:51:13.755Z,21.85
2023-01-08T11:54:01.378Z,24.35
2023-01-08T11:56:57.707Z,17.45
2023-01-08T11:59:55.041Z,18.27
2023-01-08T12:02:46.460Z,18.60
2023-01-08T12:05:17.173Z,18.50
2023-01-08T12:08:06.807Z,19.27
2023-01-08T12:10:44.081Z,18.65
2023-01-08T12:13:53.022Z,18.95
2023-01-08T12:16:57.455Z,17.83
2023-01-08T12:19:56.977Z,18.55
2023-01-08T12:23:01.622Z,18.65
2023-01-08T12:25:43.258Z,20.30
2023-01-08T12:28:16.712Z,20.40
2023-01-08T12:30:51.327Z,19.48
2023-01-08T12:33:41.668Z,20.60
2023-01-08T12:36:14.342Z,25.23
2023-01-08T12:38:49.067Z,21.45
2023-01-08T12:41:19.252Z,19.92
2023-01-08T12:44:01.351Z,37.17
2023-01-08T12:46:33.517Z,62.67
2023-01-08T12:49:04.536Z,36.35
2023-01-08T12:51:50.192Z,72.35
2023-01-08T12:54:22.462Z,34.67
2023-01-08T12:57:07.293Z,24.77
2023-01-08T12:59:47.327Z,30.88
2023-01-08T13:02:21.016Z,23.35
2023-01-08T13:04:49.101Z,57.17
2023-01-08T13:07:24.874Z,21.35
2023-01-08T13:09:58.897Z,44.95
2023-01-08T13:12:36.450Z,33.95
2023-01-08T13:15:05.661Z,19.95
2023-01-08T13:17:33.868Z,41.90
2023-01-08T13:20:06.921Z,35.30
2023-01-08T13:22:36.934Z,69.22
2023-01-08T13:25:30.008Z,32.33
2023-01-08T13:27:58.175Z,24.40
2023-01-08T13:30:55.844Z,21.83
2023-01-08T13:33:35.385Z,29.75
2023-01-08T13:36:18.868Z,38.67
2023-01-08T13:38:59.444Z,45.58
2023-01-08T13:41:30.167Z,30.70
2023-01-08T13:44:29.466Z,29.95
2023-01-08T13:47:00.435Z,117.03
2023-01-08T13:49:44.266Z,30.02
2023-01-08T13:52:39.405Z,27.83
2023-01-08T13:55:15.298Z,32.00
2023-01-08T13:57:49.805Z,27.95
2023-01-08T14:00:35.574Z,33.75
2023-01-08T14:03:03.654Z,22.30
2023-01-08T14:05:34.838Z,19.95
2023-01-08T14:08:03.074Z,28.45
2023-01-08T14:10:31.361Z,20.38
2023-01-08T14:13:07.549Z,22.77
2023-01-08T14:15:35.639Z,26.60
2023-01-08T14:18:05.228Z,21.88
2023-01-08T14:20:35.880Z,22.63
2023-01-08T14:23:11.616Z,23.20
2023-01-08T14:25:41.512Z,21.75
2023-01-08T14:28:17.634Z,21.45
2023-01-08T14:30:53.636Z,20.63
2023-01-08T14:33:34.525Z,19.75
2023-01-08T14:36:05.066Z,20.25
2023-01-08T14:38:33.072Z,20.55
2023-01-08T14:41:06.736Z,19.55
2023-01-08T14:43:40.690Z,22.75
2023-01-08T14:46:29.366Z,22.58
2023-01-08T14:48:58.417Z,22.42
2023-01-08T14:51:29.208Z,20.02
2023-01-08T14:54:02.284Z,28.48
2023-01-08T14:56:33.589Z,21.52
2023-01-08T14:59:12.396Z,19.40
2023-01-08T15:01:40.322Z,19.95
2023-01-08T15:04:19.566Z,19.85
2023-01-08T15:06:47.863Z,23.10
2023-01-08T15:09:24.702Z,21.70
2023-01-08T15:11:56.305Z,20.40
2023-01-08T15:14:25.857Z,18.63
2023-01-08T15:16:59.463Z,19.58
2023-01-08T15:19:29.782Z,19.07
2023-01-08T15:22:01.967Z,19.63
2023-01-08T15:24:29.395Z,18.08
2023-01-08T15:26:58.553Z,20.95
2023-01-08T15:29:33.149Z,18.23
2023-01-08T15:32:18.925Z,19.38
2023-01-08T15:34:46.735Z,18.63
2023-01-08T15:37:15.799Z,16.60
2023-01-08T15:39:43.613Z,14.63
2023-01-08T15:42:35.782Z,14.65
2023-01-08T15:45:12.640Z,16.73
2023-01-08T15:47:43.699Z,18.63
2023-01-08T15:50:11.797Z,15.63
2023-01-08T15:52:41.901Z,18.75
2023-01-08T15:55:21.424Z,22.52
2023-01-08T15:57:49.704Z,25.42
2023-01-08T16:00:19.789Z,14.82
2023-01-08T16:02:49.595Z,15.55
2023-01-08T16:05:19.353Z,17.83
2023-01-08T16:07:47.535Z,16.27
2023-01-08T16:10:16.858Z,14.40
2023-01-08T16:12:44.865Z,17.73
2023-01-08T16:15:14.356Z,25.38
2023-01-08T16:17:43.236Z,14.73
2023-01-08T16:20:12.253Z,13.35
2023-01-08T16:22:40.189Z,15.98
2023-01-08T16:25:09.381Z,15.10
2023-01-08T16:27:38.409Z,15.23
2023-01-08T16:30:08.333Z,13.45
2023-01-08T16:32:36.144Z,15.40
2023-01-08T16:35:04.034Z,16.02
2023-01-08T16:37:41.587Z,14.57
2023-01-08T16:40:12.931Z,14.48
2023-01-08T16:42:41.464Z,15.90
2023-01-08T16:45:09.623Z,13.43
2023-01-08T16:47:39.003Z,14.50
2023-01-08T16:50:07.029Z,21.40
2023-01-08T16:52:37.357Z,18.67
2023-01-08T16:55:06.297Z,14.10
2023-01-08T16:57:33.922Z,18.23
2023-01-08T17:00:01.501Z,15.23
2023-01-08T17:02:29.313Z,16.85
2023-01-08T17:04:56.968Z,15.75
2023-01-08T17:07:24.693Z,14.63
2023-01-08T17:09:52.219Z,15.95
2023-01-08T17:12:22.524Z,19.67
2023-01-08T17:14:50.866Z,15.82
2023-01-08T17:17:18.718Z,16.05
2023-01-08T17:19:47.226Z,18.25
2023-01-08T17:22:14.798Z,16.10
2023-01-08T17:24:42.301Z,17.85
2023-01-08T17:27:11.372Z,17.05
2023-01-08T17:29:38.965Z,15.88
2023-01-08T17:32:06.659Z,16.25
2023-01-08T17:34:34.256Z,18.45
2023-01-08T17:37:01.866Z,17.83
2023-01-08T17:39:29.702Z,18.05
2023-01-08T17:42:16.152Z,17.88
2023-01-08T17:44:43.783Z,16.95
2023-01-08T17:47:12.177Z,18.30
2023-01-08T17:49:39.923Z,17.02
2023-01-08T17:52:09.812Z,16.55
2023-01-08T17:54:37.606Z,18.48
2023-01-08T17:57:05.384Z,23.02
2023-01-08T17:59:33.867Z,19.75
2023-01-08T18:02:01.586Z,23.95
2023-01-08T18:04:29.309Z,16.98
2023-01-08T18:06:57.142Z,18.00
2023-01-08T18:09:25.033Z,18.23
2023-01-08T18:11:52.788Z,19.98
2023-01-08T18:14:21.049Z,18.20
2023-01-08T18:16:49.742Z,17.92
2023-01-08T18:19:17.944Z,17.45
2023-01-08T18:21:48.814Z,17.40
2023-01-08T18:24:16.357Z,21.20
2023-01-08T18:26:46.501Z,22.73
2023-01-08T18:29:14.148Z,21.52
2023-01-08T18:31:43.829Z,17.50
2023-01-08T18:34:15.001Z,18.75
2023-01-08T18:36:42.749Z,20.15
2023-01-08T18:39:12.504Z,19.33
2023-01-08T18:41:58.970Z,19.00
2023-01-08T18:44:26.658Z,19.50
2023-01-08T18:46:54.257Z,18.00
2023-01-08T18:49:23.482Z,19.63
2023-01-08T18:51:51.330Z,20.42
2023-01-08T18:54:18.816Z,18.40
2023-01-08T18:56:46.664Z,21.33
2023-01-08T18:59:14.279Z,28.25
2023-01-08T19:01:42.175Z,23.00
2023-01-08T19:04:16.753Z,17.67
2023-01-08T19:06:45.165Z,19.25
2023-01-08T19:09:14.993Z,22.20
2023-01-08T19:11:44.051Z,23.48
2023-01-08T19:14:13.176Z,26.63
2023-01-08T19:16:41.203Z,23.90
2023-01-08T19:19:09.329Z,23.40
2023-01-08T19:21:37.533Z,23.45
2023-01-08T19:24:05.597Z,28.92
2023-01-08T19:26:33.219Z,54.08
2023-01-08T19:29:01.909Z,19.08
2023-01-08T19:31:30.073Z,23.55
2023-01-08T19:33:58.965Z,20.15
2023-01-08T19:36:26.928Z,16.38
2023-01-08T19:38:55.020Z,13.68
2023-01-08T19:41:41.529Z,15.10
2023-01-08T19:44:09.512Z,13.57
2023-01-08T19:46:37.364Z,16.00
2023-01-08T19:49:05.713Z,19.85
2023-01-08T19:51:34.298Z,13.38
2023-01-08T19:54:02.209Z,14.63
2023-01-08T19:56:30.652Z,15.85
2023-01-08T19:58:59.184Z,14.32
2023-01-08T20:01:28.307Z,14.95
2023-01-08T20:03:56.653Z,15.13
2023-01-08T20:06:26.186Z,14.10
2023-01-08T20:08:58.397Z,13.80
2023-01-08T20:11:27.423Z,13.70
2023-01-08T20:13:56.569Z,16.30
2023-01-08T20:16:24.583Z,15.07
2023-01-08T20:18:56.670Z,14.00
2023-01-08T20:21:25.615Z,14.10
2023-01-08T20:24:00.644Z,14.40
2023-01-08T20:26:30.127Z,11.70
2023-01-08T20:28:59.180Z,14.88
2023-01-08T20:31:33.020Z,14.82
2023-01-08T20:34:04.111Z,14.73
2023-01-08T20:36:34.368Z,14.25
2023-01-08T20:39:08.859Z,15.38
2023-01-08T20:41:36.768Z,14.55
2023-01-08T20:44:07.914Z,16.45
2023-01-08T20:46:36.927Z,16.42
2023-01-08T20:49:07.861Z,17.15
2023-01-08T20:51:37.195Z,20.48
2023-01-08T20:54:07.154Z,20.45
2023-01-08T20:56:34.962Z,21.25
2023-01-08T20:59:02.805Z,20.23
2023-01-08T21:01:35.609Z,18.77
2023-01-08T21:04:06.856Z,19.77
2023-01-08T21:06:34.874Z,18.80
2023-01-08T21:09:08.507Z,19.98
2023-01-08T21:11:38.308Z,19.57
2023-01-08T21:14:08.087Z,19.77
2023-01-08T21:16:36.909Z,21.92
2023-01-08T21:19:04.498Z,26.88
2023-01-08T21:21:39.056Z,26.13
2023-01-08T21:24:09.065Z,21.38
2023-01-08T21:26:37.890Z,18.65
2023-01-08T21:29:07.406Z,19.77
2023-01-08T21:31:36.158Z,25.15
2023-01-08T21:34:07.365Z,24.92
2023-01-08T21:36:35.048Z,21.38
2023-01-08T21:39:02.703Z,19.77
2023-01-08T21:41:49.142Z,22.67
2023-01-08T21:44:40.690Z,20.95
2023-01-08T21:47:10.886Z,17.60
2023-01-08T21:49:38.933Z,32.90
2023-01-08T21:52:27.649Z,19.73
2023-01-08T21:54:57.975Z,20.05
2023-01-08T21:57:27.896Z,19.52
2023-01-08T21:59:56.048Z,19.77
2023-01-08T22:02:24.403Z,18.67
2023-01-08T22:04:55.711Z,20.13
2023-01-08T22:07:24.052Z,19.45
2023-01-08T22:09:51.957Z,18.98
2023-01-08T22:12:20.426Z,18.88
2023-01-08T22:14:48.098Z,20.27
2023-01-08T22:17:15.626Z,18.83
2023-01-08T22:19:43.200Z,18.98
2023-01-08T22:22:11.343Z,22.33
2023-01-08T22:24:40.117Z,23.52
2023-01-08T22:27:08.802Z,26.75
2023-01-08T22:29:37.241Z,20.92
2023-01-08T22:32:05.250Z,19.40
2023-01-08T22:34:34.429Z,18.85
2023-01-08T22:37:02.272Z,17.90
2023-01-08T22:39:30.434Z,23.38
2023-01-08T22:41:57.969Z,19.17
2023-01-08T22:44:25.488Z,19.02
2023-01-08T22:46:52.981Z,19.17
2023-01-08T22:49:21.306Z,19.40
2023-01-08T22:51:48.865Z,19.58
2023-01-08T22:54:18.079Z,18.40
2023-01-08T22:56:45.660Z,19.17
2023-01-08T22:59:13.308Z,18.80
2023-01-08T23:01:41.129Z,19.58
2023-01-08T23:04:08.769Z,20.00
2023-01-08T23:06:36.295Z,25.05
2023-01-08T23:09:04.460Z,29.10
2023-01-08T23:11:32.707Z,31.88
2023-01-08T23:14:00.907Z,21.67
2023-01-08T23:16:28.539Z,20.38
2023-01-08T23:18:56.710Z,20.63
2023-01-08T23:21:25.842Z,45.05
2023-01-08T23:23:53.396Z,56.30
2023-01-08T23:26:29.185Z,46.08
2023-01-08T23:28:57.887Z,28.67
2023-01-08T23:31:29.154Z,41.63
2023-01-08T23:33:57.751Z,24.33
2023-01-08T23:36:25.826Z,24.10
2023-01-08T23:38:55.578Z,23.58
2023-01-08T23:41:31.995Z,25.70
2023-01-08T23:44:06.713Z,24.60
2023-01-08T23:46:35.017Z,25.20
2023-01-08T23:49:02.894Z,24.70
2023-01-08T23:51:30.556Z,34.38
2023-01-08T23:53:58.343Z,28.67
2023-01-08T23:56:26.338Z,23.70
2023-01-08T23:58:54.364Z,56.78
